createdAt,value
2023-01-28T00:55:43.407Z,27.92
2023-01-28T00:56:44.388Z,27.93
2023-01-28T00:57:44.408Z,27.91
2023-01-28T00:58:44.341Z,27.92
2023-01-28T00:59:44.367Z,27.95
2023-01-28T01:00:44.318Z,27.88
2023-01-28T01:01:44.408Z,27.91
2023-01-28T01:02:44.354Z,27.85
2023-01-28T01:03:44.311Z,27.87
2023-01-28T01:04:44.274Z,27.87
2023-01-28T01:05:44.299Z,27.84
2023-01-28T01:06:44.272Z,27.81
2023-01-28T01:07:44.241Z,27.84
2023-01-28T01:08:44.250Z,27.87
2023-01-28T01:09:44.241Z,27.88
2023-01-28T01:10:44.219Z,27.84
2023-01-28T01:18:44.159Z,27.88
2023-01-28T01:45:43.923Z,27.82
2023-01-28T01:52:43.852Z,27.89
2023-01-28T01:58:43.787Z,27.81
2023-01-28T01:59:43.813Z,27.80
2023-01-28T02:01:43.757Z,27.82
2023-01-28T02:02:43.744Z,27.81
2023-01-28T02:03:43.851Z,27.80
2023-01-28T02:04:43.728Z,27.81
2023-01-28T02:06:43.715Z,27.81
2023-01-28T02:07:43.711Z,27.82
2023-01-28T02:08:43.693Z,27.82
2023-01-28T02:09:43.685Z,27.84
2023-01-28T02:11:43.659Z,27.85
2023-01-28T02:12:43.653Z,27.82
2023-01-28T02:13:43.652Z,27.86
2023-01-28T02:14:43.631Z,27.82
2023-01-28T02:15:43.650Z,27.81
2023-01-28T02:16:43.644Z,27.81
2023-01-28T02:17:43.612Z,27.85
2023-01-28T02:18:43.607Z,27.86
2023-01-28T02:19:43.605Z,27.82
2023-01-28T02:20:43.580Z,27.86
2023-01-28T02:21:43.569Z,27.85
2023-01-28T02:22:43.565Z,27.85
2023-01-28T02:23:43.556Z,27.81
2023-01-28T02:24:43.559Z,27.82
2023-01-28T02:25:43.535Z,27.84
2023-01-28T02:26:43.523Z,27.79
2023-01-28T02:27:43.517Z,27.81
2023-01-28T02:28:43.509Z,27.82
2023-01-28T02:29:43.494Z,27.84
2023-01-28T02:30:43.574Z,27.81
2023-01-28T02:31:43.753Z,27.81
2023-01-28T02:32:43.475Z,27.81
2023-01-28T02:33:43.461Z,27.82
2023-01-28T02:34:43.454Z,27.81
2023-01-28T02:35:43.442Z,27.81
2023-01-28T02:36:43.428Z,27.86
2023-01-28T02:37:43.427Z,27.84
2023-01-28T02:38:43.415Z,27.84
2023-01-28T02:39:43.403Z,27.81
2023-01-28T02:40:43.395Z,27.82
2023-01-28T02:41:43.390Z,27.82
2023-01-28T02:42:43.397Z,27.84
2023-01-28T02:43:43.377Z,27.86
2023-01-28T02:44:43.365Z,27.83
2023-01-28T02:45:43.353Z,27.81
2023-01-28T02:46:43.342Z,27.85
2023-01-28T02:47:43.359Z,27.86
2023-01-28T02:48:43.324Z,27.82
2023-01-28T02:49:43.320Z,27.81
2023-01-28T02:50:43.305Z,27.81
2023-01-28T02:51:43.299Z,27.85
2023-01-28T02:52:43.294Z,27.79
2023-01-28T02:53:43.286Z,27.82
2023-01-28T02:54:43.268Z,27.86
2023-01-28T02:55:43.259Z,27.79
2023-01-28T02:56:43.249Z,27.82
2023-01-28T02:57:43.243Z,27.82
2023-01-28T02:58:43.244Z,27.82
2023-01-28T02:59:43.228Z,27.86
2023-01-28T03:00:43.213Z,27.82
2023-01-28T03:01:43.351Z,27.84
2023-01-28T03:02:43.275Z,27.87
2023-01-28T03:03:43.215Z,27.85
2023-01-28T03:04:43.183Z,27.86
2023-01-28T03:05:43.170Z,27.82
2023-01-28T03:06:43.159Z,27.85
2023-01-28T03:07:43.154Z,27.82
2023-01-28T03:08:43.143Z,27.83
2023-01-28T03:09:43.142Z,27.85
2023-01-28T03:10:43.130Z,27.82
2023-01-28T03:11:43.121Z,27.85
2023-01-28T03:12:43.109Z,27.82
2023-01-28T03:13:43.098Z,27.87
2023-01-28T03:14:43.092Z,27.82
2023-01-28T03:15:43.106Z,27.82
2023-01-28T03:16:43.071Z,27.86
2023-01-28T03:17:43.065Z,27.82
2023-01-28T03:18:43.053Z,27.80
2023-01-28T03:19:43.080Z,27.85
2023-01-28T03:20:43.035Z,27.82
2023-01-28T03:21:43.031Z,27.87
2023-01-28T03:22:43.024Z,27.82
2023-01-28T03:23:43.011Z,27.80
2023-01-28T03:24:43.010Z,27.83
2023-01-28T03:25:42.988Z,27.83
2023-01-28T03:26:42.983Z,27.81
2023-01-28T03:27:42.971Z,27.83
2023-01-28T03:28:42.966Z,27.78
2023-01-28T03:29:42.956Z,27.89
2023-01-28T03:30:42.998Z,27.85
2023-01-28T03:31:42.934Z,27.80
2023-01-28T03:32:42.926Z,27.85
2023-01-28T03:33:42.919Z,27.82
2023-01-28T03:34:42.908Z,27.83
2023-01-28T03:35:42.925Z,27.82
2023-01-28T03:36:42.917Z,27.83
2023-01-28T03:37:42.881Z,27.86
2023-01-28T03:38:42.876Z,27.83
2023-01-28T03:39:42.863Z,27.79
2023-01-28T03:40:42.854Z,27.80
2023-01-28T03:41:42.845Z,27.83
2023-01-28T03:42:42.840Z,27.79
2023-01-28T03:43:42.864Z,27.82
2023-01-28T03:44:42.821Z,27.82
2023-01-28T03:45:42.813Z,27.80
2023-01-28T03:46:42.808Z,27.80
2023-01-28T03:47:42.797Z,27.80
2023-01-28T03:48:42.782Z,27.86
2023-01-28T03:49:42.773Z,27.85
2023-01-28T03:50:42.764Z,27.87
2023-01-28T03:51:42.781Z,27.82
2023-01-28T03:52:42.760Z,27.82
2023-01-28T03:53:42.776Z,27.83
2023-01-28T03:54:42.744Z,27.83
2023-01-28T03:55:42.732Z,27.80
2023-01-28T03:56:42.721Z,27.89
2023-01-28T03:57:42.705Z,27.82
2023-01-28T03:58:42.696Z,27.80
2023-01-28T03:59:42.683Z,27.86
2023-01-28T04:00:42.675Z,27.84
2023-01-28T04:01:42.715Z,27.83
2023-01-28T04:02:42.794Z,27.87
2023-01-28T04:03:42.664Z,27.80
2023-01-28T04:04:42.640Z,27.83
2023-01-28T04:05:42.631Z,27.86
2023-01-28T04:06:42.620Z,27.86
2023-01-28T04:07:42.650Z,27.82
2023-01-28T04:08:42.603Z,27.83
2023-01-28T04:09:42.595Z,27.83
2023-01-28T04:10:42.584Z,27.83
2023-01-28T04:11:42.579Z,27.84
2023-01-28T04:12:42.574Z,27.85
2023-01-28T04:13:42.558Z,27.84
2023-01-28T04:14:42.553Z,27.82
2023-01-28T04:15:42.539Z,27.79
2023-01-28T04:16:42.531Z,27.83
2023-01-28T04:17:42.521Z,27.80
2023-01-28T04:18:42.511Z,27.83
2023-01-28T04:19:42.513Z,27.79
2023-01-28T04:20:42.494Z,27.86
2023-01-28T04:21:42.483Z,27.87
2023-01-28T04:22:42.477Z,27.92
2023-01-28T04:23:42.489Z,27.94
2023-01-28T04:24:42.478Z,28.01
2023-01-28T04:25:42.449Z,28.09
2023-01-28T04:26:42.440Z,28.18
2023-01-28T04:27:42.432Z,28.19
2023-01-28T04:28:42.424Z,28.23
2023-01-28T04:29:42.415Z,28.23
2023-01-28T04:30:42.440Z,28.33
2023-01-28T04:31:42.472Z,28.33
2023-01-28T04:32:42.388Z,28.40
2023-01-28T04:33:42.376Z,28.43
2023-01-28T04:34:42.371Z,28.43
2023-01-28T04:35:42.359Z,28.48
2023-01-28T04:36:42.369Z,28.50
2023-01-28T04:37:42.345Z,28.46
2023-01-28T04:38:42.332Z,28.56
2023-01-28T04:39:42.352Z,28.49
2023-01-28T04:40:42.316Z,28.55
2023-01-28T04:41:42.306Z,28.56
2023-01-28T04:42:42.297Z,28.56
2023-01-28T04:43:42.289Z,28.59
2023-01-28T04:44:42.282Z,28.58
2023-01-28T04:45:42.271Z,28.60
2023-01-28T04:46:42.285Z,28.60
2023-01-28T04:47:42.257Z,28.61
2023-01-28T04:48:42.244Z,28.64
2023-01-28T04:49:42.236Z,28.60
2023-01-28T04:50:42.225Z,28.61
2023-01-28T04:51:42.216Z,28.64
2023-01-28T04:52:42.212Z,28.64
2023-01-28T04:53:42.203Z,28.63
2023-01-28T04:54:42.194Z,28.67
2023-01-28T04:55:42.208Z,28.66
2023-01-28T04:56:42.171Z,28.68
2023-01-28T04:57:42.172Z,28.73
2023-01-28T04:58:42.152Z,28.67
2023-01-28T05:00:42.231Z,28.70
2023-01-28T05:01:42.247Z,28.72
2023-01-28T05:02:42.124Z,28.70
2023-01-28T05:03:42.116Z,28.72
2023-01-28T05:04:42.098Z,28.74
2023-01-28T05:05:42.095Z,28.68
2023-01-28T05:06:42.081Z,28.73
2023-01-28T05:07:42.079Z,28.73
2023-01-28T05:08:42.064Z,28.72
2023-01-28T05:09:42.059Z,28.75
2023-01-28T05:10:42.048Z,28.68
2023-01-28T05:11:42.061Z,28.71
2023-01-28T05:12:42.028Z,28.68
2023-01-28T05:13:42.019Z,28.67
2023-01-28T05:14:42.012Z,28.73
2023-01-28T05:15:42.000Z,28.70
2023-01-28T05:16:41.991Z,28.72
2023-01-28T05:17:42.100Z,28.73
2023-01-28T05:18:44.643Z,28.71
2023-01-28T05:19:41.973Z,28.71
2023-01-28T05:20:41.954Z,28.72
2023-01-28T05:21:41.954Z,28.71
2023-01-28T05:22:41.938Z,28.68
2023-01-28T05:23:41.928Z,28.72
2023-01-28T05:24:41.941Z,28.70
2023-01-28T05:25:41.912Z,28.70
2023-01-28T05:26:41.902Z,28.68
2023-01-28T05:27:41.925Z,28.73
2023-01-28T05:28:41.881Z,28.70
2023-01-28T05:29:41.876Z,28.74
2023-01-28T05:30:41.988Z,28.67
2023-01-28T05:31:41.859Z,28.70
2023-01-28T05:32:41.973Z,28.72
2023-01-28T05:33:41.840Z,28.72
2023-01-28T05:34:41.886Z,28.74
2023-01-28T05:35:41.823Z,28.70
2023-01-28T05:36:41.823Z,28.72
2023-01-28T05:37:41.807Z,28.70
2023-01-28T05:38:41.807Z,28.67
2023-01-28T05:39:41.787Z,28.70
2023-01-28T05:40:41.779Z,28.71
2023-01-28T05:41:41.771Z,28.72
2023-01-28T05:42:41.757Z,28.70
2023-01-28T05:43:41.775Z,28.73
2023-01-28T05:44:41.755Z,28.67
2023-01-28T05:45:41.794Z,28.76
2023-01-28T05:46:41.723Z,28.68
2023-01-28T05:47:43.052Z,28.73
2023-01-28T05:48:41.725Z,28.73
2023-01-28T05:49:41.697Z,28.70
2023-01-28T05:50:41.696Z,28.71
2023-01-28T05:51:41.680Z,28.77
2023-01-28T05:52:41.670Z,28.72
2023-01-28T05:53:41.674Z,28.79
2023-01-28T05:54:41.658Z,28.70
2023-01-28T05:55:41.655Z,28.70
2023-01-28T05:56:41.633Z,28.74
2023-01-28T05:57:41.631Z,28.74
2023-01-28T05:58:41.688Z,28.77
2023-01-28T05:59:41.638Z,28.70
2023-01-28T06:00:41.610Z,28.73
2023-01-28T06:01:41.632Z,28.73
2023-01-28T06:02:41.615Z,28.72
2023-01-28T06:03:41.576Z,28.72
2023-01-28T06:04:41.561Z,28.68
2023-01-28T06:05:41.563Z,28.68
2023-01-28T06:06:41.551Z,28.73
2023-01-28T06:07:41.533Z,28.74
2023-01-28T06:08:41.525Z,28.56
2023-01-28T06:09:41.518Z,28.46
2023-01-28T06:10:41.509Z,28.26
2023-01-28T06:11:41.501Z,28.08
2023-01-28T06:12:41.494Z,27.90
2023-01-28T06:13:41.497Z,27.74
2023-01-28T06:14:41.471Z,27.77
2023-01-28T06:15:41.562Z,27.94
2023-01-28T06:16:41.464Z,28.11
2023-01-28T06:17:41.447Z,28.27
2023-01-28T06:18:41.438Z,28.34
2023-01-28T06:19:41.428Z,28.40
2023-01-28T06:20:41.421Z,28.24
2023-01-28T06:21:41.411Z,28.27
2023-01-28T06:22:41.397Z,28.30
2023-01-28T06:23:41.398Z,28.33
2023-01-28T06:24:41.381Z,28.37
2023-01-28T06:25:41.376Z,28.32
2023-01-28T06:26:41.369Z,28.31
2023-01-28T06:27:41.356Z,28.40
2023-01-28T06:28:41.353Z,28.45
2023-01-28T06:29:41.336Z,28.48
2023-01-28T06:30:41.338Z,28.38
2023-01-28T06:31:41.391Z,28.41
2023-01-28T06:32:41.307Z,28.54
2023-01-28T06:33:41.303Z,28.54
2023-01-28T06:34:41.292Z,28.51
2023-01-28T06:35:41.282Z,28.52
2023-01-28T06:36:41.272Z,28.51
2023-01-28T06:37:41.267Z,28.58
2023-01-28T06:38:41.254Z,28.59
2023-01-28T06:39:41.297Z,28.62
2023-01-28T06:40:41.244Z,28.63
2023-01-28T06:41:41.231Z,28.63
2023-01-28T06:42:41.224Z,28.66
2023-01-28T06:43:41.211Z,28.65
2023-01-28T06:44:41.203Z,28.63
2023-01-28T06:45:41.199Z,28.70
2023-01-28T06:46:41.254Z,28.69
2023-01-28T06:47:41.214Z,28.69
2023-01-28T06:48:41.172Z,28.70
2023-01-28T06:49:41.203Z,28.72
2023-01-28T06:50:41.158Z,28.78
2023-01-28T06:51:41.144Z,28.76
2023-01-28T06:52:41.129Z,28.75
2023-01-28T06:53:41.122Z,28.76
2023-01-28T06:54:41.113Z,28.75
2023-01-28T06:55:41.116Z,28.79
2023-01-28T06:56:41.096Z,28.85
2023-01-28T06:57:41.083Z,28.83
2023-01-28T06:58:41.075Z,28.88
2023-01-28T06:59:41.064Z,28.83
2023-01-28T07:00:41.056Z,28.79
2023-01-28T07:01:41.089Z,28.82
2023-01-28T07:02:41.059Z,28.83
2023-01-28T07:03:41.057Z,28.95
2023-01-28T07:04:41.021Z,28.80
2023-01-28T07:05:41.012Z,28.79
2023-01-28T07:06:41.007Z,28.89
2023-01-28T07:07:42.133Z,28.85
2023-01-28T07:08:40.983Z,28.82
2023-01-28T07:09:40.978Z,28.80
2023-01-28T07:10:40.972Z,28.88
2023-01-28T07:11:40.961Z,28.86
2023-01-28T07:12:40.956Z,28.85
2023-01-28T07:13:40.948Z,28.80
2023-01-28T07:14:40.933Z,28.83
2023-01-28T07:15:40.919Z,28.83
2023-01-28T07:16:40.945Z,28.86
2023-01-28T07:17:40.901Z,28.78
2023-01-28T07:18:40.894Z,28.85
2023-01-28T07:19:40.910Z,28.88
2023-01-28T07:20:40.901Z,28.79
2023-01-28T07:21:40.867Z,28.75
2023-01-28T07:22:40.868Z,28.75
2023-01-28T07:23:40.857Z,28.89
2023-01-28T07:24:40.847Z,28.80
2023-01-28T07:25:40.831Z,28.77
2023-01-28T07:26:40.822Z,28.75
2023-01-28T07:27:40.816Z,28.75
2023-01-28T07:28:40.801Z,28.76
2023-01-28T07:29:40.802Z,28.75
2023-01-28T07:30:40.851Z,28.69
2023-01-28T07:31:40.904Z,28.74
2023-01-28T07:32:40.771Z,28.75
2023-01-28T07:33:40.773Z,28.77
2023-01-28T07:34:40.752Z,28.72
2023-01-28T07:35:40.765Z,28.69
2023-01-28T07:36:40.733Z,28.76
2023-01-28T07:37:40.734Z,28.75
2023-01-28T07:38:40.714Z,28.72
2023-01-28T07:39:40.712Z,28.71
2023-01-28T07:40:40.695Z,28.72
2023-01-28T07:41:40.699Z,28.73
2023-01-28T07:42:40.677Z,28.73
2023-01-28T07:43:40.669Z,28.69
2023-01-28T07:44:40.661Z,28.80
2023-01-28T07:45:40.663Z,28.75
2023-01-28T07:46:40.643Z,28.73
2023-01-28T07:47:40.640Z,28.72
2023-01-28T07:48:40.628Z,28.76
2023-01-28T07:49:40.618Z,28.75
2023-01-28T07:50:40.622Z,28.73
2023-01-28T07:51:40.689Z,28.65
2023-01-28T07:52:40.589Z,28.67
2023-01-28T07:53:40.578Z,28.68
2023-01-28T07:54:40.571Z,28.75
2023-01-28T07:55:40.585Z,28.74
2023-01-28T07:56:40.560Z,28.75
2023-01-28T07:57:40.545Z,28.72
2023-01-28T07:58:40.531Z,28.79
2023-01-28T07:59:40.525Z,28.72
2023-01-28T08:00:40.522Z,28.81
2023-01-28T08:01:40.543Z,28.75
2023-01-28T08:02:40.500Z,28.81
2023-01-28T08:03:40.491Z,28.72
2023-01-28T08:04:40.698Z,28.79
2023-01-28T08:05:40.471Z,28.77
2023-01-28T08:06:40.465Z,28.85
2023-01-28T08:07:40.485Z,28.88
2023-01-28T08:08:40.441Z,28.82
2023-01-28T08:09:40.434Z,28.82
2023-01-28T08:10:40.456Z,28.88
2023-01-28T08:11:40.426Z,28.88
2023-01-28T08:12:40.407Z,28.90
2023-01-28T08:13:40.407Z,28.82
2023-01-28T08:14:40.391Z,28.88
2023-01-28T08:15:40.416Z,28.88
2023-01-28T08:16:40.373Z,28.85
2023-01-28T08:17:40.366Z,28.82
2023-01-28T08:18:40.376Z,28.92
2023-01-28T08:19:40.349Z,28.89
2023-01-28T08:20:40.336Z,28.92
2023-01-28T08:21:40.336Z,28.90
2023-01-28T08:22:40.324Z,28.95
2023-01-28T08:23:40.349Z,28.93
2023-01-28T08:24:40.300Z,28.85
2023-01-28T08:25:40.302Z,28.90
2023-01-28T08:26:40.280Z,28.89
2023-01-28T08:27:40.275Z,28.86
2023-01-28T08:28:40.280Z,28.89
2023-01-28T08:29:40.260Z,28.92
2023-01-28T08:30:40.285Z,28.89
2023-01-28T08:31:40.294Z,28.89
2023-01-28T08:32:40.230Z,28.88
2023-01-28T08:33:40.223Z,28.88
2023-01-28T08:34:40.215Z,28.89
2023-01-28T08:35:40.245Z,28.89
2023-01-28T08:36:40.196Z,28.89
2023-01-28T08:37:40.210Z,28.91
2023-01-28T08:38:40.182Z,28.91
2023-01-28T08:39:40.187Z,28.98
2023-01-28T08:40:40.163Z,28.92
2023-01-28T08:41:40.186Z,28.92
2023-01-28T08:43:40.132Z,28.91
2023-01-28T08:44:40.125Z,28.89
2023-01-28T08:45:40.117Z,28.89
2023-01-28T08:46:40.207Z,28.94
2023-01-28T08:47:40.098Z,28.89
2023-01-28T08:48:40.086Z,28.92
2023-01-28T08:49:40.074Z,28.94
2023-01-28T08:50:40.069Z,28.89
2023-01-28T08:51:40.057Z,29.01
2023-01-28T08:52:40.059Z,29.04
2023-01-28T08:53:40.040Z,28.98
2023-01-28T08:54:40.030Z,28.94
2023-01-28T08:55:40.047Z,28.92
2023-01-28T08:56:40.018Z,29.01
2023-01-28T08:57:40.024Z,29.03
2023-01-28T08:58:39.994Z,29.03
2023-01-28T08:59:39.986Z,28.97
2023-01-28T09:00:39.991Z,28.98
2023-01-28T09:01:40.018Z,29.05
2023-01-28T09:02:39.968Z,29.10
2023-01-28T09:03:39.971Z,28.98
2023-01-28T09:04:39.950Z,29.05
2023-01-28T09:05:39.958Z,29.05
2023-01-28T09:06:39.928Z,29.06
2023-01-28T09:07:39.923Z,29.04
2023-01-28T09:08:39.907Z,29.05
2023-01-28T09:09:39.896Z,29.14
2023-01-28T09:10:39.887Z,29.12
2023-01-28T09:11:39.902Z,29.12
2023-01-28T09:12:39.873Z,29.09
2023-01-28T09:13:39.866Z,29.14
2023-01-28T09:14:39.851Z,29.15
2023-01-28T09:15:39.840Z,29.11
2023-01-28T09:16:39.838Z,29.12
2023-01-28T09:17:39.825Z,29.15
2023-01-28T09:18:39.819Z,29.19
2023-01-28T09:19:39.806Z,29.22
2023-01-28T09:21:39.790Z,29.18
2023-01-28T09:22:39.780Z,29.22
2023-01-28T09:23:39.775Z,29.24
2023-01-28T09:24:39.762Z,29.12
2023-01-28T09:29:39.720Z,29.19
2023-01-28T09:42:39.632Z,29.21
2023-01-28T10:02:39.436Z,29.25
2023-01-28T10:06:39.388Z,29.25
2023-01-28T10:07:39.374Z,29.17
2023-01-28T10:08:39.363Z,29.20
2023-01-28T10:09:39.358Z,29.21
2023-01-28T10:10:39.352Z,29.24
2023-01-28T10:11:39.345Z,29.22
2023-01-28T10:12:39.336Z,29.21
2023-01-28T10:13:39.324Z,29.22
2023-01-28T10:14:39.311Z,29.21
2023-01-28T10:15:39.335Z,29.28
2023-01-28T10:16:39.307Z,29.31
2023-01-28T10:17:39.418Z,29.25
2023-01-28T10:18:39.279Z,29.25
2023-01-28T10:19:39.274Z,29.25
2023-01-28T10:20:39.262Z,29.28
2023-01-28T10:21:39.262Z,29.29
2023-01-28T10:22:39.244Z,29.26
2023-01-28T10:23:39.241Z,29.32
2023-01-28T10:24:39.231Z,29.28
2023-01-28T10:25:39.215Z,29.21
2023-01-28T10:26:39.206Z,29.19
2023-01-28T10:27:39.199Z,29.21
2023-01-28T10:28:39.187Z,29.21
2023-01-28T10:29:39.178Z,29.14
2023-01-28T10:30:39.193Z,29.15
2023-01-28T10:31:39.401Z,29.13
2023-01-28T10:32:39.151Z,29.18
2023-01-28T10:33:39.150Z,29.23
2023-01-28T10:34:39.136Z,29.18
2023-01-28T10:35:39.127Z,29.17
2023-01-28T10:36:39.120Z,29.17
2023-01-28T10:37:39.107Z,29.14
2023-01-28T10:39:39.098Z,29.17
2023-01-28T10:40:39.079Z,29.18
2023-01-28T10:41:51.821Z,29.20
2023-01-28T10:42:39.067Z,29.15
2023-01-28T10:43:39.053Z,29.18
2023-01-28T10:44:39.052Z,29.15
2023-01-28T10:45:39.065Z,29.18
2023-01-28T10:46:39.028Z,29.20
2023-01-28T10:47:39.044Z,29.20
2023-01-28T10:48:39.008Z,29.21
2023-01-28T10:49:39.038Z,29.15
2023-01-28T10:50:38.987Z,29.19
2023-01-28T10:51:38.992Z,29.15
2023-01-28T10:52:38.978Z,29.17
2023-01-28T10:53:38.965Z,29.23
2023-01-28T10:54:38.955Z,29.21
2023-01-28T10:55:38.948Z,29.12
2023-01-28T10:56:38.936Z,29.17
2023-01-28T10:57:38.931Z,29.09
2023-01-28T10:58:38.920Z,29.16
2023-01-28T10:59:38.912Z,29.16
2023-01-28T11:00:38.898Z,29.12
2023-01-28T11:01:38.892Z,29.08
2023-01-28T11:02:38.894Z,29.09
2023-01-28T11:03:38.904Z,29.13
2023-01-28T11:04:38.865Z,29.10
2023-01-28T11:05:38.861Z,29.09
2023-01-28T11:06:38.855Z,29.10
2023-01-28T11:07:38.838Z,29.16
2023-01-28T11:08:38.833Z,29.15
2023-01-28T11:09:38.827Z,29.18
2023-01-28T11:10:38.815Z,29.13
2023-01-28T11:11:38.801Z,29.15
2023-01-28T11:12:38.792Z,29.09
2023-01-28T11:13:38.787Z,29.09
2023-01-28T11:14:38.776Z,29.05
2023-01-28T11:15:38.766Z,29.01
2023-01-28T11:16:38.756Z,29.05
2023-01-28T11:17:38.865Z,29.09
2023-01-28T11:18:38.746Z,29.06
2023-01-28T11:19:38.769Z,29.12
2023-01-28T11:20:38.730Z,29.15
2023-01-28T11:21:38.714Z,29.12
2023-01-28T11:22:38.702Z,29.13
2023-01-28T11:23:38.692Z,29.09
2023-01-28T11:24:38.687Z,29.13
2023-01-28T11:25:38.687Z,29.19
2023-01-28T11:26:38.696Z,29.16
2023-01-28T11:28:38.663Z,29.13
2023-01-28T11:29:38.643Z,29.13
2023-01-28T11:30:38.702Z,29.06
2023-01-28T11:31:38.654Z,29.09
2023-01-28T11:32:38.614Z,29.04
2023-01-28T11:33:38.625Z,29.08
2023-01-28T11:34:38.596Z,28.99
2023-01-28T11:35:38.615Z,29.01
2023-01-28T11:36:38.575Z,29.08
2023-01-28T11:37:38.570Z,29.11
2023-01-28T11:38:38.568Z,29.04
2023-01-28T11:39:38.549Z,28.99
2023-01-28T11:40:38.541Z,28.99
2023-01-28T11:41:38.537Z,29.02
2023-01-28T11:42:38.532Z,29.07
2023-01-28T11:43:38.513Z,29.01
2023-01-28T11:44:38.548Z,29.04
2023-01-28T11:45:38.585Z,29.00
2023-01-28T11:46:38.493Z,29.01
2023-01-28T11:47:38.476Z,28.98
2023-01-28T11:48:38.470Z,28.94
2023-01-28T11:49:38.462Z,28.96
2023-01-28T11:50:38.455Z,28.97
2023-01-28T11:51:38.473Z,29.03
2023-01-28T11:53:02.590Z,29.00
2023-01-28T11:53:38.429Z,29.00
2023-01-28T11:54:38.414Z,28.97
2023-01-28T11:55:38.434Z,28.94
2023-01-28T11:56:38.436Z,28.95
2023-01-28T11:57:38.387Z,28.96
2023-01-28T11:58:38.381Z,28.94
2023-01-28T11:59:38.379Z,28.86
2023-01-28T12:00:38.411Z,28.82
2023-01-28T12:01:38.356Z,28.83
2023-01-28T12:02:38.392Z,28.81
2023-01-28T12:03:38.333Z,28.85
2023-01-28T12:04:38.332Z,28.82
2023-01-28T12:05:38.319Z,28.76
2023-01-28T12:06:38.312Z,28.74
2023-01-28T12:07:38.327Z,28.78
2023-01-28T12:08:38.291Z,28.78
2023-01-28T12:09:38.280Z,28.77
2023-01-28T12:10:38.278Z,28.75
2023-01-28T12:11:38.276Z,28.78
2023-01-28T12:12:38.261Z,28.75
2023-01-28T12:13:38.246Z,28.68
2023-01-28T12:14:38.241Z,28.74
2023-01-28T12:15:38.272Z,28.68
2023-01-28T12:16:38.224Z,28.75
2023-01-28T12:17:38.226Z,28.72
2023-01-28T12:18:38.205Z,28.64
2023-01-28T12:19:38.193Z,28.68
2023-01-28T12:20:38.179Z,28.68
2023-01-28T12:21:38.189Z,28.66
2023-01-28T12:22:38.172Z,28.63
2023-01-28T12:23:38.182Z,28.66
2023-01-28T12:24:38.167Z,28.64
2023-01-28T12:25:38.144Z,28.64
2023-01-28T12:26:38.125Z,28.73
2023-01-28T12:27:38.122Z,28.77
2023-01-28T12:28:38.111Z,28.78
2023-01-28T12:29:38.110Z,28.79
2023-01-28T12:30:38.090Z,28.82
2023-01-28T12:31:38.231Z,28.83
2023-01-28T12:32:38.075Z,28.96
2023-01-28T12:33:38.065Z,29.01
2023-01-28T12:34:38.057Z,29.01
2023-01-28T12:35:38.045Z,29.04
2023-01-28T12:36:38.041Z,29.01
2023-01-28T12:37:38.028Z,29.06
2023-01-28T12:38:38.092Z,29.11
2023-01-28T12:39:38.049Z,29.17
2023-01-28T12:40:38.002Z,29.18
2023-01-28T12:41:37.994Z,29.15
2023-01-28T12:42:37.984Z,29.14
2023-01-28T12:43:37.977Z,29.20
2023-01-28T12:44:37.964Z,29.18
2023-01-28T12:45:37.999Z,29.11
2023-01-28T12:46:37.949Z,29.14
2023-01-28T12:47:37.939Z,29.14
2023-01-28T12:48:37.928Z,29.25
2023-01-28T12:49:37.921Z,29.25
2023-01-28T12:50:37.912Z,29.26
2023-01-28T12:51:37.904Z,29.31
2023-01-28T12:52:37.902Z,29.22
2023-01-28T12:53:37.885Z,29.21
2023-01-28T12:54:37.873Z,29.26
2023-01-28T12:55:37.906Z,29.30
2023-01-28T12:56:37.862Z,29.28
2023-01-28T12:57:37.849Z,29.21
2023-01-28T12:58:37.843Z,29.27
2023-01-28T12:59:37.830Z,29.24
2023-01-28T13:00:37.830Z,29.18
2023-01-28T13:01:37.969Z,29.14
2023-01-28T13:02:37.803Z,29.11
2023-01-28T13:03:37.791Z,29.15
2023-01-28T13:04:39.861Z,29.21
2023-01-28T13:05:37.790Z,29.24
2023-01-28T13:06:37.768Z,29.20
2023-01-28T13:07:37.758Z,29.16
2023-01-28T13:08:37.750Z,29.10
2023-01-28T13:09:37.748Z,29.12
2023-01-28T13:10:37.736Z,29.14
2023-01-28T13:11:37.751Z,29.14
2023-01-28T13:12:37.715Z,29.14
2023-01-28T13:13:37.717Z,29.12
2023-01-28T13:14:37.706Z,29.08
2023-01-28T13:15:37.688Z,29.10
2023-01-28T13:16:38.221Z,29.11
2023-01-28T13:17:37.675Z,29.13
2023-01-28T13:18:37.660Z,29.18
2023-01-28T13:19:37.652Z,29.24
2023-01-28T13:20:37.650Z,29.20
2023-01-28T13:21:48.573Z,29.16
2023-01-28T13:22:37.646Z,29.11
2023-01-28T13:23:37.620Z,29.10
2023-01-28T13:24:37.610Z,29.14
2023-01-28T13:25:37.628Z,29.20
2023-01-28T13:26:37.589Z,29.24
2023-01-28T13:27:37.608Z,29.16
2023-01-28T13:28:37.571Z,29.18
2023-01-28T13:29:37.563Z,29.12
2023-01-28T13:30:37.602Z,29.18
2023-01-28T13:31:37.546Z,29.20
2023-01-28T13:32:37.627Z,29.23
2023-01-28T13:33:37.532Z,29.23
2023-01-28T13:34:37.514Z,29.16
2023-01-28T13:35:37.520Z,29.11
2023-01-28T13:36:37.507Z,29.17
2023-01-28T13:37:37.492Z,29.25
2023-01-28T13:38:37.480Z,29.25
2023-01-28T13:39:37.475Z,29.29
2023-01-28T13:40:37.493Z,29.32
2023-01-28T13:41:37.468Z,29.30
2023-01-28T13:42:37.465Z,29.26
2023-01-28T13:43:37.492Z,29.26
2023-01-28T13:44:37.427Z,29.31
2023-01-28T13:45:37.443Z,29.26
2023-01-28T13:46:37.428Z,29.22
2023-01-28T13:47:37.409Z,29.19
2023-01-28T13:48:37.391Z,29.18
2023-01-28T13:49:37.383Z,29.14
2023-01-28T13:50:37.376Z,29.21
2023-01-28T13:51:37.366Z,29.27
2023-01-28T13:52:37.353Z,29.25
2023-01-28T13:53:37.345Z,29.29
2023-01-28T13:54:37.340Z,29.26
2023-01-28T13:55:44.617Z,29.24
2023-01-28T13:56:37.865Z,29.23
2023-01-28T13:57:37.343Z,29.25
2023-01-28T13:58:37.303Z,29.19
2023-01-28T13:59:37.319Z,29.27
2023-01-28T14:00:37.287Z,29.27
2023-01-28T14:01:37.325Z,29.29
2023-01-28T14:02:37.271Z,29.19
2023-01-28T14:03:37.258Z,29.15
2023-01-28T14:04:37.291Z,29.20
2023-01-28T14:05:37.244Z,29.23
2023-01-28T14:06:37.230Z,29.24
2023-01-28T14:07:37.222Z,29.30
2023-01-28T14:08:37.219Z,29.30
2023-01-28T14:09:37.215Z,29.24
2023-01-28T14:10:37.287Z,29.26
2023-01-28T14:11:37.186Z,29.31
2023-01-28T14:12:37.194Z,29.32
2023-01-28T14:13:37.171Z,29.34
2023-01-28T14:14:37.158Z,29.33
2023-01-28T14:15:37.207Z,29.26
2023-01-28T14:16:37.146Z,29.23
2023-01-28T14:17:37.130Z,29.24
2023-01-28T14:18:37.126Z,29.23
2023-01-28T14:19:37.113Z,29.26
2023-01-28T14:20:37.106Z,29.20
2023-01-28T14:21:37.099Z,29.19
2023-01-28T14:22:37.090Z,29.14
2023-01-28T14:23:37.081Z,29.15
2023-01-28T14:24:37.069Z,29.24
2023-01-28T14:25:37.063Z,29.27
2023-01-28T14:26:37.058Z,29.26
2023-01-28T14:27:37.080Z,29.21
2023-01-28T14:28:37.036Z,29.23
2023-01-28T14:29:37.046Z,29.17
2023-01-28T14:30:37.016Z,29.17
2023-01-28T14:31:37.248Z,29.16
2023-01-28T14:32:37.004Z,29.20
2023-01-28T14:33:37.003Z,29.23
2023-01-28T14:34:36.977Z,29.17
2023-01-28T14:35:36.971Z,29.16
2023-01-28T14:36:36.967Z,29.10
2023-01-28T14:37:36.951Z,29.06
2023-01-28T14:38:36.950Z,29.10
2023-01-28T14:39:36.940Z,29.16
2023-01-28T14:40:36.938Z,29.19
2023-01-28T14:41:36.916Z,29.15
2023-01-28T14:42:36.913Z,29.15
2023-01-28T14:43:36.896Z,29.15
2023-01-28T14:44:36.894Z,29.14
2023-01-28T14:45:36.883Z,29.14
2023-01-28T14:46:36.911Z,29.17
2023-01-28T14:47:36.885Z,29.19
2023-01-28T14:48:36.853Z,29.20
2023-01-28T14:49:36.842Z,29.20
2023-01-28T14:50:36.833Z,29.13
2023-01-28T14:51:36.825Z,29.07
2023-01-28T14:52:36.815Z,29.07
2023-01-28T14:53:36.810Z,29.05
2023-01-28T14:54:36.798Z,29.00
2023-01-28T14:55:36.796Z,29.08
2023-01-28T14:56:36.778Z,29.05
2023-01-28T14:57:36.773Z,29.02
2023-01-28T14:58:36.768Z,28.97
2023-01-28T14:59:36.754Z,28.98
2023-01-28T15:00:36.762Z,28.98
2023-01-28T15:01:36.774Z,28.99
2023-01-28T15:02:36.787Z,28.99
2023-01-28T15:03:36.845Z,29.01
2023-01-28T15:04:36.708Z,29.02
2023-01-28T15:05:36.705Z,29.02
2023-01-28T15:07:36.685Z,28.95
2023-01-28T15:08:37.195Z,29.11
2023-01-28T15:09:36.671Z,29.12
2023-01-28T15:10:36.660Z,29.09
2023-01-28T15:11:36.649Z,28.97
2023-01-28T15:12:36.636Z,28.97
2023-01-28T15:13:36.636Z,28.95
2023-01-28T15:14:36.628Z,29.01
2023-01-28T15:15:36.643Z,29.04
2023-01-28T15:16:36.602Z,29.04
2023-01-28T15:17:36.594Z,29.03
2023-01-28T15:18:36.588Z,28.97